createdAt,value
2023-03-27T00:01:16.839Z,1.60
2023-03-27T00:03:43.498Z,2.00
2023-03-27T00:06:16.238Z,1.77
2023-03-27T00:08:47.619Z,2.27
2023-03-27T00:11:15.065Z,1.80
2023-03-27T00:13:49.193Z,2.20
2023-03-27T00:16:17.788Z,1.90
2023-03-27T00:18:44.907Z,1.60
2023-03-27T00:21:11.579Z,1.73
2023-03-27T00:23:37.947Z,2.30
2023-03-27T00:26:04.591Z,2.23
2023-03-27T00:28:31.291Z,1.83
2023-03-27T00:30:58.404Z,2.10
2023-03-27T00:33:25.398Z,1.57
2023-03-27T00:35:52.283Z,1.47
2023-03-27T00:38:19.220Z,1.63
2023-03-27T00:40:47.089Z,2.00
2023-03-27T00:43:28.847Z,1.80
2023-03-27T00:46:17.454Z,1.93
2023-03-27T00:48:47.207Z,2.43
2023-03-27T00:51:14.644Z,2.03
2023-03-27T00:53:42.490Z,1.80
2023-03-27T00:56:09.303Z,1.70
2023-03-27T00:58:47.737Z,1.90
2023-03-27T01:01:15.433Z,1.60
2023-03-27T01:03:43.807Z,2.33
2023-03-27T01:06:13.882Z,1.80
2023-03-27T01:08:42.973Z,1.70
2023-03-27T01:11:43.578Z,3.03
2023-03-27T01:14:21.332Z,1.63
2023-03-27T01:17:06.902Z,2.10
2023-03-27T01:19:58.198Z,1.70
2023-03-27T01:22:57.560Z,1.40
2023-03-27T01:25:57.332Z,2.00
2023-03-27T01:28:42.463Z,2.27
2023-03-27T01:31:50.113Z,1.80
2023-03-27T01:34:42.692Z,1.60
2023-03-27T01:37:29.142Z,1.80
2023-03-27T01:40:05.056Z,1.80
2023-03-27T01:42:36.747Z,1.70
2023-03-27T01:45:27.809Z,2.23
2023-03-27T01:47:54.186Z,1.90
2023-03-27T01:50:35.632Z,2.03
2023-03-27T01:53:10.622Z,1.70
2023-03-27T01:55:40.022Z,1.83
2023-03-27T01:58:09.256Z,3.00
2023-03-27T02:00:52.241Z,1.80
2023-03-27T02:03:39.754Z,2.20
2023-03-27T02:06:09.171Z,1.67
2023-03-27T02:08:53.456Z,2.00
2023-03-27T02:11:22.418Z,1.90
2023-03-27T02:13:52.577Z,1.80
2023-03-27T02:16:23.584Z,1.43
2023-03-27T02:18:56.699Z,1.63
2023-03-27T02:21:23.641Z,2.33
2023-03-27T02:23:50.377Z,1.70
2023-03-27T02:26:16.849Z,1.77
2023-03-27T02:28:49.096Z,1.80
2023-03-27T02:31:57.254Z,1.90
2023-03-27T02:34:29.305Z,1.50
2023-03-27T02:37:02.299Z,1.40
2023-03-27T02:39:39.505Z,1.70
2023-03-27T02:42:19.682Z,1.47
2023-03-27T02:45:13.854Z,1.40
2023-03-27T02:47:48.969Z,1.70
2023-03-27T02:50:33.223Z,1.47
2023-03-27T02:53:01.729Z,1.67
2023-03-27T02:55:33.247Z,1.43
2023-03-27T02:58:07.450Z,1.63
2023-03-27T03:00:39.629Z,1.77
2023-03-27T03:03:11.068Z,1.67
2023-03-27T03:05:38.095Z,1.73
2023-03-27T03:08:05.470Z,1.60
2023-03-27T03:10:33.266Z,1.60
2023-03-27T03:12:59.647Z,2.17
2023-03-27T03:15:26.011Z,1.60
2023-03-27T03:17:52.889Z,1.43
2023-03-27T03:20:19.359Z,1.40
2023-03-27T03:22:46.060Z,1.27
2023-03-27T03:25:12.478Z,2.10
2023-03-27T03:27:41.419Z,1.40
2023-03-27T03:30:09.628Z,1.70
2023-03-27T03:32:36.113Z,1.40
2023-03-27T03:35:02.901Z,1.30
2023-03-27T03:37:29.423Z,1.77
2023-03-27T03:39:56.186Z,1.20
2023-03-27T03:42:24.344Z,1.33
2023-03-27T03:44:51.018Z,1.57
2023-03-27T03:47:17.770Z,2.03
2023-03-27T03:49:44.231Z,1.43
2023-03-27T03:52:10.733Z,1.53
2023-03-27T03:54:38.617Z,1.10
2023-03-27T03:57:05.241Z,1.90
2023-03-27T03:59:32.075Z,1.50
2023-03-27T04:01:58.541Z,1.47
2023-03-27T04:04:25.093Z,1.53
2023-03-27T04:06:52.982Z,2.20
2023-03-27T04:09:19.724Z,1.40
2023-03-27T04:11:46.942Z,1.70
2023-03-27T04:14:13.470Z,1.40
2023-03-27T04:16:39.914Z,1.50
2023-03-27T04:19:06.986Z,1.53
2023-03-27T04:21:33.376Z,1.53
2023-03-27T04:24:02.677Z,1.63
2023-03-27T04:26:29.580Z,2.10
2023-03-27T04:28:56.263Z,1.93
2023-03-27T04:31:22.675Z,1.70
2023-03-27T04:33:52.375Z,1.47
2023-03-27T04:36:19.714Z,1.40
2023-03-27T04:38:47.898Z,1.90
2023-03-27T04:41:14.727Z,1.90
2023-03-27T04:43:41.872Z,2.00
2023-03-27T04:46:08.837Z,1.90
2023-03-27T04:48:39.025Z,2.10
2023-03-27T04:51:06.531Z,2.03
2023-03-27T04:53:35.877Z,2.27
2023-03-27T04:56:02.242Z,2.00
2023-03-27T04:58:28.719Z,1.87
2023-03-27T05:00:56.410Z,2.97
2023-03-27T05:03:27.723Z,1.57
2023-03-27T05:05:54.267Z,1.57
2023-03-27T05:08:21.186Z,1.93
2023-03-27T05:10:47.637Z,1.50
2023-03-27T05:13:14.120Z,2.40
2023-03-27T05:15:40.650Z,1.87
2023-03-27T05:18:07.487Z,1.83
2023-03-27T05:20:35.060Z,1.80
2023-03-27T05:23:01.988Z,1.90
2023-03-27T05:25:29.215Z,1.83
2023-03-27T05:27:55.687Z,1.50
2023-03-27T05:30:23.911Z,1.83
2023-03-27T05:32:54.352Z,2.07
2023-03-27T05:35:23.262Z,1.93
2023-03-27T05:37:52.471Z,1.70
2023-03-27T05:40:25.140Z,1.57
2023-03-27T05:42:52.907Z,2.13
2023-03-27T05:45:19.967Z,1.50
2023-03-27T05:47:51.941Z,1.77
2023-03-27T05:50:20.102Z,1.43
2023-03-27T05:52:46.928Z,1.70
2023-03-27T05:55:14.862Z,1.97
2023-03-27T05:57:41.992Z,1.77
2023-03-27T06:00:13.984Z,2.20
2023-03-27T06:02:43.124Z,1.70
2023-03-27T06:05:13.331Z,2.10
2023-03-27T06:07:42.452Z,1.70
2023-03-27T06:10:13.594Z,2.20
2023-03-27T06:12:41.565Z,1.83
2023-03-27T06:15:09.571Z,2.13
2023-03-27T06:17:38.238Z,2.00
2023-03-27T06:20:13.063Z,2.00
2023-03-27T06:22:43.782Z,2.30
2023-03-27T06:25:10.505Z,2.03
2023-03-27T06:27:37.862Z,1.70
2023-03-27T06:30:04.837Z,2.03
2023-03-27T06:32:31.299Z,3.73
2023-03-27T06:34:57.794Z,1.80
2023-03-27T06:37:25.066Z,2.20
2023-03-27T06:39:52.110Z,2.17
2023-03-27T06:42:18.519Z,2.33
2023-03-27T06:44:44.884Z,1.93
2023-03-27T06:47:11.258Z,1.70
2023-03-27T06:49:37.694Z,2.43
2023-03-27T06:52:04.116Z,2.10
2023-03-27T06:54:30.983Z,2.37
2023-03-27T06:56:57.355Z,1.37
2023-03-27T06:59:23.825Z,1.87
2023-03-27T07:01:52.293Z,1.40
2023-03-27T07:04:18.839Z,1.50
2023-03-27T07:06:48.762Z,1.50
2023-03-27T07:09:15.322Z,1.67
2023-03-27T07:11:41.716Z,2.00
2023-03-27T07:14:08.306Z,1.20
2023-03-27T07:16:34.810Z,1.30
2023-03-27T07:19:02.433Z,1.50
2023-03-27T07:21:29.522Z,1.37
2023-03-27T07:23:55.977Z,1.40
2023-03-27T07:26:22.402Z,1.20
2023-03-27T07:28:50.421Z,1.77
2023-03-27T07:33:46.691Z,1.60
2023-03-27T07:36:14.134Z,1.53
2023-03-27T07:38:42.152Z,1.73
2023-03-27T07:41:09.231Z,1.47
2023-03-27T07:43:35.854Z,1.47
2023-03-27T07:46:03.169Z,1.83
2023-03-27T07:48:30.510Z,1.87
2023-03-27T07:53:34.635Z,1.20
2023-03-27T07:56:01.445Z,1.67
2023-03-27T07:58:27.967Z,1.30
2023-03-27T08:00:54.809Z,1.70
2023-03-27T08:03:21.947Z,1.40
2023-03-27T08:05:56.133Z,1.43
2023-03-27T08:08:23.214Z,0.90
2023-03-27T08:10:50.743Z,0.97
2023-03-27T08:13:17.117Z,1.10
2023-03-27T08:15:43.524Z,1.20
2023-03-27T08:18:11.528Z,1.40
2023-03-27T08:20:38.688Z,1.53
2023-03-27T08:23:05.119Z,1.20
2023-03-27T08:25:34.791Z,1.10
2023-03-27T08:28:02.584Z,1.23
2023-03-27T08:30:29.559Z,1.43
2023-03-27T08:32:56.794Z,1.20
2023-03-27T08:35:23.275Z,1.10
2023-03-27T08:37:49.814Z,0.90
2023-03-27T08:40:25.952Z,1.20
2023-03-27T08:42:54.255Z,1.13
2023-03-27T08:45:25.693Z,0.90
2023-03-27T08:48:02.793Z,1.23
2023-03-27T08:50:36.820Z,1.33
2023-03-27T08:53:04.876Z,0.90
2023-03-27T08:55:40.715Z,1.17
2023-03-27T08:58:15.473Z,1.00
2023-03-27T09:00:42.454Z,1.27
2023-03-27T09:03:27.477Z,0.90
2023-03-27T09:06:08.489Z,1.10
2023-03-27T09:08:44.037Z,1.07
2023-03-27T09:11:28.887Z,0.87
2023-03-27T09:13:55.565Z,1.40
2023-03-27T09:16:28.475Z,0.97
2023-03-27T09:19:04.547Z,1.10
2023-03-27T09:21:36.509Z,1.10
2023-03-27T09:24:08.055Z,0.70
2023-03-27T09:26:36.340Z,1.93
2023-03-27T09:29:22.500Z,2.63
2023-03-27T09:31:50.489Z,2.30
2023-03-27T09:34:29.225Z,2.33
2023-03-27T09:36:56.013Z,1.30
2023-03-27T09:39:27.528Z,1.20
2023-03-27T09:41:58.588Z,1.03
2023-03-27T09:44:34.602Z,0.77
2023-03-27T09:47:12.639Z,0.70
2023-03-27T09:49:40.814Z,1.10
2023-03-27T09:52:07.903Z,0.90
2023-03-27T09:54:51.999Z,0.70
2023-03-27T09:57:18.694Z,0.70
2023-03-27T09:59:59.791Z,1.00
2023-03-27T10:02:28.980Z,0.67
2023-03-27T10:05:00.018Z,0.87
2023-03-27T10:07:26.685Z,0.87
2023-03-27T10:10:22.663Z,0.80
2023-03-27T10:12:58.227Z,0.70
2023-03-27T10:15:32.926Z,0.60
2023-03-27T10:18:01.302Z,1.30
2023-03-27T10:20:27.944Z,1.10
2023-03-27T10:23:02.617Z,1.40
2023-03-27T10:25:33.480Z,1.17
2023-03-27T10:28:24.099Z,1.10
2023-03-27T10:31:02.261Z,1.00
2023-03-27T10:33:32.586Z,1.47
2023-03-27T10:35:59.436Z,1.27
2023-03-27T10:38:27.574Z,1.60
2023-03-27T10:40:55.130Z,1.80
2023-03-27T10:43:31.982Z,1.40
2023-03-27T10:46:07.124Z,0.90
2023-03-27T10:48:47.067Z,1.37
2023-03-27T10:51:48.815Z,1.20
2023-03-27T10:54:18.202Z,1.30
2023-03-27T10:57:00.106Z,1.37
2023-03-27T10:59:40.895Z,1.07
2023-03-27T11:02:16.589Z,1.00
2023-03-27T11:04:54.720Z,0.60
2023-03-27T11:07:28.031Z,0.83
2023-03-27T11:09:58.102Z,0.70
2023-03-27T11:12:24.892Z,0.70
2023-03-27T11:15:04.875Z,0.60
2023-03-27T11:17:50.702Z,0.40
2023-03-27T11:20:23.944Z,0.50
2023-03-27T11:22:59.234Z,0.53
2023-03-27T11:25:33.591Z,1.10
2023-03-27T11:28:13.984Z,0.80
2023-03-27T11:30:45.987Z,0.80
2023-03-27T11:33:24.206Z,1.00
2023-03-27T11:35:59.911Z,1.20
2023-03-27T11:38:31.731Z,0.80
2023-03-27T11:40:59.384Z,0.80
2023-03-27T11:43:26.052Z,0.70
2023-03-27T11:46:29.954Z,0.97
2023-03-27T11:49:11.037Z,0.63
2023-03-27T11:51:50.218Z,0.80
2023-03-27T11:55:06.425Z,0.80
2023-03-27T11:57:58.774Z,1.33
2023-03-27T12:00:31.852Z,0.80
2023-03-27T12:03:17.190Z,0.87
2023-03-27T12:06:02.168Z,0.87
2023-03-27T12:09:06.058Z,1.00
2023-03-27T12:11:39.351Z,1.13
2023-03-27T12:14:23.967Z,0.90
2023-03-27T12:17:02.031Z,0.83
2023-03-27T12:19:42.985Z,1.30
2023-03-27T12:22:24.377Z,1.13
2023-03-27T12:24:59.825Z,1.87
2023-03-27T12:27:48.808Z,1.10
2023-03-27T12:30:25.760Z,0.80
2023-03-27T12:33:00.313Z,0.93
2023-03-27T12:35:29.444Z,0.80
2023-03-27T12:37:57.460Z,0.57
2023-03-27T12:40:30.565Z,0.53
2023-03-27T12:43:23.268Z,0.70
2023-03-27T12:46:34.931Z,0.70
2023-03-27T12:49:25.895Z,0.80
2023-03-27T12:51:57.782Z,1.20
2023-03-27T12:54:26.533Z,1.00
2023-03-27T12:57:21.204Z,0.70
2023-03-27T12:59:57.746Z,0.80
2023-03-27T13:02:46.293Z,0.90
2023-03-27T13:05:38.896Z,1.30
2023-03-27T13:08:18.883Z,0.73
2023-03-27T13:10:58.917Z,1.27
2023-03-27T13:14:02.606Z,0.97
2023-03-27T13:16:50.801Z,1.40
2023-03-27T13:19:26.025Z,0.80
2023-03-27T13:22:12.623Z,1.17
2023-03-27T13:24:58.067Z,1.13
2023-03-27T13:28:02.068Z,0.90
2023-03-27T13:30:44.004Z,0.80
2023-03-27T13:33:16.243Z,1.10
2023-03-27T13:35:58.314Z,1.03
2023-03-27T13:38:54.283Z,1.07
2023-03-27T13:41:45.118Z,1.63
2023-03-27T13:44:20.555Z,1.20
2023-03-27T13:47:25.433Z,0.90
2023-03-27T13:50:00.633Z,0.90
2023-03-27T13:52:49.105Z,0.90
2023-03-27T13:55:31.448Z,0.90
2023-03-27T13:58:29.746Z,1.03
2023-03-27T14:01:14.532Z,0.90
2023-03-27T14:04:20.010Z,1.07
2023-03-27T14:07:04.934Z,1.00
2023-03-27T14:09:41.184Z,1.40
2023-03-27T14:12:25.510Z,1.00
2023-03-27T14:15:10.012Z,1.60
2023-03-27T14:17:55.108Z,1.57
2023-03-27T14:20:43.496Z,1.57
2023-03-27T14:23:16.609Z,1.70
2023-03-27T14:25:45.964Z,1.20
2023-03-27T14:28:42.218Z,1.80
2023-03-27T14:31:11.257Z,1.50
2023-03-27T14:33:39.149Z,1.40
2023-03-27T14:36:05.989Z,1.53
2023-03-27T14:38:34.364Z,1.53
2023-03-27T14:41:03.397Z,1.50
2023-03-27T14:43:30.644Z,1.30
2023-03-27T14:46:00.616Z,1.87
2023-03-27T14:48:34.171Z,1.90
2023-03-27T14:51:04.296Z,1.30
2023-03-27T14:53:36.493Z,1.47
2023-03-27T14:56:11.637Z,1.40
2023-03-27T14:58:42.957Z,1.43
2023-03-27T15:01:10.202Z,1.70
2023-03-27T15:03:37.857Z,1.40
2023-03-27T15:06:16.875Z,2.03
2023-03-27T15:08:50.800Z,1.50
2023-03-27T15:11:20.722Z,1.17
2023-03-27T15:13:49.064Z,1.40
2023-03-27T15:16:24.206Z,0.80
2023-03-27T15:19:04.684Z,1.13
2023-03-27T15:21:46.381Z,1.60
2023-03-27T15:24:31.865Z,1.30
2023-03-27T15:27:00.457Z,1.00
2023-03-27T15:29:40.736Z,1.40
2023-03-27T15:32:11.722Z,1.40
2023-03-27T15:34:46.696Z,1.20
2023-03-27T15:37:19.043Z,1.13
2023-03-27T15:40:43.085Z,1.27
2023-03-27T15:43:12.731Z,1.27
2023-03-27T15:45:42.160Z,0.80
2023-03-27T15:48:20.384Z,1.20
2023-03-27T15:51:07.935Z,0.97
2023-03-27T15:53:40.788Z,1.37
2023-03-27T15:56:17.128Z,1.13
2023-03-27T15:58:47.431Z,0.90
2023-03-27T16:01:19.844Z,0.97
2023-03-27T16:03:48.301Z,1.30
2023-03-27T16:06:33.827Z,1.47
2023-03-27T16:09:01.173Z,1.13
2023-03-27T16:11:42.718Z,1.20
2023-03-27T16:14:41.685Z,1.20
2023-03-27T16:17:09.935Z,1.10
2023-03-27T16:20:00.932Z,1.30
2023-03-27T16:22:32.328Z,1.23
2023-03-27T16:25:00.823Z,1.13
2023-03-27T16:27:37.378Z,1.00
2023-03-27T16:30:06.630Z,1.10
2023-03-27T16:32:33.032Z,1.07
2023-03-27T16:34:59.455Z,0.80
2023-03-27T16:37:26.813Z,1.00
2023-03-27T16:39:56.611Z,1.20
2023-03-27T16:42:26.363Z,1.50
2023-03-27T16:44:53.132Z,1.43
2023-03-27T16:47:20.502Z,1.50
2023-03-27T16:49:56.193Z,1.10
2023-03-27T16:52:33.623Z,1.40
2023-03-27T16:54:59.977Z,1.93
2023-03-27T16:57:26.389Z,1.30
2023-03-27T16:59:52.834Z,1.37
2023-03-27T17:02:19.252Z,1.73
2023-03-27T17:04:45.745Z,1.27
2023-03-27T17:07:12.237Z,1.20
2023-03-27T17:09:38.682Z,1.20
2023-03-27T17:12:05.320Z,1.23
2023-03-27T17:14:31.769Z,1.53
2023-03-27T17:16:58.246Z,1.40
2023-03-27T17:19:24.868Z,1.47
2023-03-27T17:21:51.286Z,1.70
2023-03-27T17:24:19.821Z,2.00
2023-03-27T17:26:46.322Z,1.43
2023-03-27T17:29:12.753Z,1.90
2023-03-27T17:31:39.401Z,2.03
2023-03-27T17:34:06.743Z,1.80
2023-03-27T17:36:41.039Z,1.63
2023-03-27T17:39:11.544Z,1.60
2023-03-27T17:41:37.911Z,2.27
2023-03-27T17:44:05.647Z,1.57
2023-03-27T17:46:33.865Z,1.93
2023-03-27T17:49:00.446Z,1.57
2023-03-27T17:51:26.887Z,1.73
2023-03-27T17:53:53.337Z,1.60
2023-03-27T17:56:19.685Z,2.07
2023-03-27T17:58:48.835Z,1.97
2023-03-27T18:01:20.930Z,2.40
2023-03-27T18:03:48.170Z,1.77
2023-03-27T18:06:17.420Z,1.67
2023-03-27T18:08:44.732Z,1.87
2023-03-27T18:11:13.091Z,2.60
2023-03-27T18:13:39.602Z,1.73
2023-03-27T18:16:08.565Z,2.50
2023-03-27T18:18:35.362Z,2.00
2023-03-27T18:21:01.903Z,1.60
2023-03-27T18:23:28.328Z,1.80
2023-03-27T18:25:55.275Z,1.63
2023-03-27T18:28:22.284Z,1.80
2023-03-27T18:30:57.784Z,3.10
2023-03-27T18:33:24.200Z,1.80
2023-03-27T18:35:56.161Z,2.63
2023-03-27T18:38:24.401Z,1.80
2023-03-27T18:40:51.143Z,1.97
2023-03-27T18:43:17.704Z,2.30
2023-03-27T18:45:44.202Z,2.13
2023-03-27T18:48:10.791Z,1.70
2023-03-27T18:50:37.230Z,1.90
2023-03-27T18:53:03.602Z,1.87
2023-03-27T18:55:29.959Z,2.00
2023-03-27T18:57:56.383Z,1.63
2023-03-27T19:00:23.203Z,2.37
2023-03-27T19:02:49.698Z,2.73
2023-03-27T19:05:17.020Z,2.20
2023-03-27T19:07:44.882Z,2.17
2023-03-27T19:10:12.721Z,2.30
2023-03-27T19:12:39.269Z,2.20
2023-03-27T19:15:17.357Z,2.60
2023-03-27T19:17:46.589Z,2.13
2023-03-27T19:20:13.730Z,2.13
2023-03-27T19:22:40.202Z,2.53
2023-03-27T19:25:07.399Z,2.33
2023-03-27T19:27:38.587Z,1.40
2023-03-27T19:30:07.826Z,2.33
2023-03-27T19:32:34.290Z,2.40
2023-03-27T19:35:03.012Z,2.10
2023-03-27T19:37:29.887Z,2.63
2023-03-27T19:39:56.381Z,2.00
2023-03-27T19:42:22.875Z,2.30
2023-03-27T19:44:49.333Z,2.37
2023-03-27T19:47:15.825Z,2.07
2023-03-27T19:49:42.659Z,2.67
2023-03-27T19:52:09.704Z,2.23
2023-03-27T19:54:36.278Z,1.90
2023-03-27T19:57:02.844Z,2.13
2023-03-27T19:59:31.147Z,2.50
2023-03-27T20:01:58.307Z,2.63
2023-03-27T20:04:25.625Z,1.67
2023-03-27T20:06:52.013Z,1.90
2023-03-27T20:09:19.073Z,2.13
2023-03-27T20:11:46.385Z,2.20
2023-03-27T20:14:13.180Z,2.10
2023-03-27T20:16:39.614Z,2.10
2023-03-27T20:19:06.201Z,1.70
2023-03-27T20:21:38.924Z,1.60
2023-03-27T20:24:06.736Z,2.07
2023-03-27T20:26:39.141Z,2.27
2023-03-27T20:29:11.272Z,1.90
2023-03-27T20:31:37.936Z,2.10
2023-03-27T20:34:04.993Z,1.90
2023-03-27T20:36:34.797Z,2.20
2023-03-27T20:39:04.584Z,3.17
2023-03-27T20:41:38.645Z,2.13
2023-03-27T20:44:15.570Z,2.33
2023-03-27T20:46:51.495Z,3.43
2023-03-27T20:49:40.237Z,2.40
2023-03-27T20:52:08.134Z,2.57
2023-03-27T20:54:34.680Z,2.50
2023-03-27T20:57:02.410Z,2.03
2023-03-27T20:59:29.741Z,2.10
2023-03-27T21:01:56.300Z,2.33
2023-03-27T21:04:24.326Z,2.60
2023-03-27T21:06:51.509Z,3.40
2023-03-27T21:09:18.031Z,2.90
2023-03-27T21:11:44.412Z,3.07
2023-03-27T21:14:11.298Z,2.53
2023-03-27T21:16:37.892Z,2.37
2023-03-27T21:19:04.497Z,2.00
2023-03-27T21:21:31.943Z,2.03
2023-03-27T21:23:58.317Z,1.97
2023-03-27T21:26:24.712Z,1.80
2023-03-27T21:28:52.714Z,1.50
2023-03-27T21:31:19.998Z,1.90
2023-03-27T21:33:46.414Z,1.87
2023-03-27T21:36:13.378Z,1.57
2023-03-27T21:38:40.567Z,2.33
2023-03-27T21:41:07.208Z,1.83
2023-03-27T21:43:33.674Z,1.60
2023-03-27T21:46:03.377Z,1.40
2023-03-27T21:48:30.515Z,1.60
2023-03-27T21:51:02.332Z,2.37
2023-03-27T21:53:29.000Z,1.10
2023-03-27T21:55:56.586Z,1.33
2023-03-27T21:58:24.451Z,1.17
2023-03-27T22:00:50.898Z,1.47
2023-03-27T22:03:17.368Z,1.30
2023-03-27T22:05:46.024Z,1.27
2023-03-27T22:08:18.011Z,1.67
2023-03-27T22:10:44.563Z,1.77
2023-03-27T22:13:10.924Z,1.53
2023-03-27T22:15:37.362Z,2.03
2023-03-27T22:18:03.951Z,1.60
2023-03-27T22:20:30.363Z,2.00
2023-03-27T22:22:56.744Z,1.53
2023-03-27T22:25:23.125Z,2.10
2023-03-27T22:27:50.539Z,2.20
2023-03-27T22:30:17.087Z,1.90
2023-03-27T22:32:43.898Z,2.03
2023-03-27T22:35:11.200Z,1.30
2023-03-27T22:37:38.541Z,1.87
2023-03-27T22:40:06.601Z,1.70
2023-03-27T22:42:33.417Z,2.30
2023-03-27T22:44:59.808Z,2.57
2023-03-27T22:47:27.224Z,1.77
2023-03-27T22:49:53.659Z,2.27
2023-03-27T22:52:20.609Z,2.07
2023-03-27T22:54:47.062Z,1.67
2023-03-27T22:57:13.531Z,2.10
2023-03-27T22:59:40.059Z,1.80
2023-03-27T23:02:06.966Z,1.90
2023-03-27T23:04:33.471Z,1.80
2023-03-27T23:07:01.274Z,2.40
2023-03-27T23:09:27.721Z,1.50
2023-03-27T23:11:54.156Z,1.40
2023-03-27T23:14:20.636Z,1.37
2023-03-27T23:16:47.223Z,1.33
2023-03-27T23:19:13.705Z,1.20
2023-03-27T23:21:40.136Z,1.10
2023-03-27T23:24:06.755Z,1.47
2023-03-27T23:26:33.126Z,1.27
2023-03-27T23:28:59.537Z,1.40
2023-03-27T23:31:26.009Z,1.00
2023-03-27T23:33:52.514Z,1.47
2023-03-27T23:36:23.799Z,1.40
2023-03-27T23:38:51.514Z,1.23
2023-03-27T23:41:18.942Z,1.47
2023-03-27T23:43:45.537Z,1.30
2023-03-27T23:46:12.168Z,1.00
2023-03-27T23:48:40.585Z,1.50
2023-03-27T23:51:07.174Z,0.97
2023-03-27T23:53:33.889Z,1.40
2023-03-27T23:56:00.525Z,1.20
2023-03-27T23:58:28.672Z,1.70
